Time;durP1;ratioP1;P1;durP2;ratioP2;P2;SDS_P1;SDS_P2;PMS_P1;PMS_P2;Temp;Humidity;BMP_temperature;BMP_pressure;BME280_temperature;BME280_humidity;BME280_pressure;Samples;Min_cycle;Max_cycle;Signal;HPM_P1;HPM_P2
2023/08/24 00:01:12;;;;;;;3.10;2.80;;;;;;;;;;5042476;28;20387;-82
2023/08/24 00:03:38;;;;;;;2.90;2.70;;;;;;;;;;5041632;28;20383;-82
2023/08/24 00:06:04;;;;;;;4.55;2.63;;;;;;;;;;5039273;28;20533;-82
2023/08/24 00:08:30;;;;;;;3.50;2.70;;;;;;;;;;5039606;28;20399;-82
2023/08/24 00:10:56;;;;;;;2.80;2.60;;;;;;;;;;5037310;28;20387;-82
2023/08/24 00:13:22;;;;;;;2.85;2.65;;;;;;;;;;5038202;28;20966;-82
2023/08/24 00:15:48;;;;;;;3.15;2.70;;;;;;;;;;5035422;28;20474;-82
2023/08/24 00:18:14;;;;;;;3.40;2.90;;;;;;;;;;5035804;28;20387;-82
2023/08/24 00:20:41;;;;;;;3.03;2.70;;;;;;;;;;5038637;28;20419;-83
2023/08/24 00:23:08;;;;;;;2.65;2.45;;;;;;;;;;5038895;28;20477;-82
2023/08/24 00:25:34;;;;;;;2.90;2.70;;;;;;;;;;5039851;28;20383;-82
2023/08/24 00:28:00;;;;;;;3.33;2.58;;;;;;;;;;5045144;28;20403;-82
2023/08/24 00:30:26;;;;;;;4.20;2.67;;;;;;;;;;5038211;28;20383;-82
2023/08/24 00:32:52;;;;;;;4.30;2.70;;;;;;;;;;5039040;28;20426;-82
2023/08/24 00:35:18;;;;;;;3.78;2.65;;;;;;;;;;5038398;28;20383;-82
2023/08/24 00:37:44;;;;;;;2.85;2.63;;;;;;;;;;5038487;28;20379;-82
2023/08/24 00:40:10;;;;;;;3.95;2.80;;;;;;;;;;5037823;28;20387;-82
2023/08/24 00:42:39;;;;;;;4.47;2.70;;;;;;;;;;5037043;28;20480;-82
2023/08/24 00:45:06;;;;;;;2.88;2.67;;;;;;;;;;5033266;28;20387;-83
2023/08/24 00:47:32;;;;;;;3.42;2.60;;;;;;;;;;5053782;28;20410;-81
2023/08/24 00:50:00;;;;;;;3.15;2.80;;;;;;;;;;5038559;28;20422;-82
2023/08/24 00:52:29;;;;;;;2.60;2.40;;;;;;;;;;5038258;28;20478;-82
2023/08/24 00:54:55;;;;;;;2.78;2.58;;;;;;;;;;5039636;28;20403;-82
2023/08/24 00:57:21;;;;;;;2.70;2.50;;;;;;;;;;5038802;28;20391;-82
2023/08/24 00:59:48;;;;;;;3.08;2.55;;;;;;;;;;5036058;28;20391;-82
2023/08/24 01:02:14;;;;;;;2.97;2.78;;;;;;;;;;5038494;28;20448;-82
2023/08/24 01:04:42;;;;;;;2.70;2.50;;;;;;;;;;5038288;28;20399;-82
2023/08/24 01:07:09;;;;;;;3.88;2.90;;;;;;;;;;5038427;28;20379;-82
2023/08/24 01:09:35;;;;;;;3.30;2.95;;;;;;;;;;5038017;28;20871;-82
2023/08/24 01:12:22;;;;;;;3.10;2.80;;;;;;;;;;5038333;28;20394;-82
2023/08/24 01:14:53;;;;;;;3.08;2.72;;;;;;;;;;5027514;28;20423;-82
2023/08/24 01:17:22;;;;;;;2.78;2.58;;;;;;;;;;5036945;28;20952;-82
2023/08/24 01:19:48;;;;;;;3.10;2.80;;;;;;;;;;5036902;28;20376;-82
2023/08/24 01:22:20;;;;;;;2.67;2.47;;;;;;;;;;5037389;28;20391;-82
2023/08/24 01:24:50;;;;;;;2.67;2.47;;;;;;;;;;5038176;28;20386;-82
2023/08/24 01:27:16;;;;;;;4.50;2.85;;;;;;;;;;5037497;28;20395;-82
2023/08/24 01:29:43;;;;;;;3.25;2.60;;;;;;;;;;5037672;28;20379;-82
2023/08/24 01:32:11;;;;;;;2.78;2.55;;;;;;;;;;5037850;28;20390;-82
2023/08/24 01:34:38;;;;;;;3.05;2.70;;;;;;;;;;5037586;28;20419;-82
2023/08/24 01:37:05;;;;;;;3.95;2.90;;;;;;;;;;5037829;28;20474;-82
2023/08/24 01:39:41;;;;;;;3.08;2.80;;;;;;;;;;5035034;28;20415;-82
2023/08/24 01:42:10;;;;;;;2.97;2.67;;;;;;;;;;5032384;28;20872;-82
2023/08/24 01:44:37;;;;;;;2.70;2.50;;;;;;;;;;5035182;28;20484;-82
2023/08/24 01:47:05;;;;;;;3.63;2.65;;;;;;;;;;5036510;28;20394;-83
2023/08/24 01:49:32;;;;;;;4.07;2.92;;;;;;;;;;5037641;28;20765;-82
2023/08/24 01:51:58;;;;;;;3.63;2.83;;;;;;;;;;5037500;28;20390;-82
2023/08/24 01:54:24;;;;;;;3.00;2.70;;;;;;;;;;5037823;28;20537;-82
2023/08/24 01:56:50;;;;;;;3.77;2.80;;;;;;;;;;5036857;28;20386;-82
2023/08/24 01:59:16;;;;;;;2.77;2.57;;;;;;;;;;5036560;28;20795;-82
2023/08/24 02:01:42;;;;;;;3.93;2.50;;;;;;;;;;5038338;28;20394;-82
2023/08/24 02:04:08;;;;;;;3.50;2.83;;;;;;;;;;5037509;28;20993;-82
2023/08/24 02:06:34;;;;;;;3.77;2.80;;;;;;;;;;5038202;28;20481;-82
2023/08/24 02:09:00;;;;;;;2.93;2.67;;;;;;;;;;5039596;28;20530;-82
2023/08/24 02:11:26;;;;;;;4.30;3.00;;;;;;;;;;5024735;28;20422;-82
2023/08/24 02:13:52;;;;;;;3.17;2.90;;;;;;;;;;5036904;28;20449;-82
2023/08/24 02:16:18;;;;;;;3.97;3.00;;;;;;;;;;5039438;28;20391;-83
2023/08/24 02:18:45;;;;;;;3.03;2.80;;;;;;;;;;5037394;28;20869;-82
2023/08/24 02:21:11;;;;;;;2.65;2.45;;;;;;;;;;5028083;28;20392;-82
2023/08/24 02:23:38;;;;;;;4.63;3.50;;;;;;;;;;5034570;28;20903;-82
2023/08/24 02:26:04;;;;;;;3.83;2.95;;;;;;;;;;5036259;28;20384;-82
2023/08/24 02:28:30;;;;;;;3.65;2.80;;;;;;;;;;5035182;28;20527;-82
2023/08/24 02:31:00;;;;;;;3.00;2.80;;;;;;;;;;5036467;28;20473;-82
2023/08/24 02:33:26;;;;;;;4.90;2.92;;;;;;;;;;5036158;28;20419;-82
2023/08/24 02:35:52;;;;;;;3.40;3.10;;;;;;;;;;5036897;28;20478;-82
2023/08/24 02:38:18;;;;;;;3.20;2.90;;;;;;;;;;5037138;28;20470;-82
2023/08/24 02:40:45;;;;;;;3.70;3.10;;;;;;;;;;5036682;28;20383;-82
2023/08/24 02:43:11;;;;;;;3.20;3.00;;;;;;;;;;5037202;28;20444;-82
2023/08/24 02:45:37;;;;;;;3.50;3.10;;;;;;;;;;5031092;28;20437;-82
2023/08/24 02:48:03;;;;;;;3.28;2.97;;;;;;;;;;5037061;28;20387;-82
2023/08/24 02:50:29;;;;;;;3.28;2.88;;;;;;;;;;5036955;28;20398;-82
2023/08/24 02:52:57;;;;;;;4.25;2.95;;;;;;;;;;5036003;28;20442;-82
2023/08/24 02:55:25;;;;;;;3.67;2.97;;;;;;;;;;5045326;28;21598;-82
2023/08/24 02:57:51;;;;;;;3.00;2.70;;;;;;;;;;5034331;28;20442;-81
2023/08/24 03:00:17;;;;;;;3.40;3.10;;;;;;;;;;5034397;28;20383;-82
2023/08/24 03:02:43;;;;;;;4.90;3.20;;;;;;;;;;5035811;28;20828;-82
2023/08/24 03:05:09;;;;;;;3.20;2.90;;;;;;;;;;5033658;28;20387;-82
2023/08/24 03:07:35;;;;;;;3.63;2.85;;;;;;;;;;5035693;28;20794;-81
2023/08/24 03:10:01;;;;;;;3.45;2.83;;;;;;;;;;5016740;28;20379;-83
2023/08/24 03:12:27;;;;;;;3.40;3.10;;;;;;;;;;5035259;28;20403;-83
2023/08/24 03:14:53;;;;;;;3.60;3.30;;;;;;;;;;5036031;28;20383;-81
2023/08/24 03:17:19;;;;;;;3.70;2.80;;;;;;;;;;5036266;28;20395;-81
2023/08/24 03:19:45;;;;;;;3.13;2.85;;;;;;;;;;5034905;28;20722;-81
2023/08/24 03:22:11;;;;;;;2.90;2.70;;;;;;;;;;5035539;28;20390;-81
2023/08/24 03:24:37;;;;;;;3.17;2.90;;;;;;;;;;5034890;28;20368;-81
2023/08/24 03:27:03;;;;;;;3.50;2.90;;;;;;;;;;5017987;28;20426;-82
2023/08/24 03:29:29;;;;;;;3.47;2.72;;;;;;;;;;5034122;28;20451;-83
2023/08/24 03:31:55;;;;;;;3.38;3.08;;;;;;;;;;5036189;28;20391;-81
2023/08/24 03:34:21;;;;;;;3.35;3.05;;;;;;;;;;5034463;28;20419;-82
2023/08/24 03:36:50;;;;;;;3.00;2.75;;;;;;;;;;5035451;28;20900;-81
2023/08/24 03:39:16;;;;;;;2.83;2.63;;;;;;;;;;5037644;28;20406;-81
2023/08/24 03:41:42;;;;;;;3.08;2.78;;;;;;;;;;5037384;28;20383;-80
2023/08/24 03:44:08;;;;;;;2.97;2.78;;;;;;;;;;5038611;28;20491;-81
2023/08/24 03:46:34;;;;;;;3.10;2.80;;;;;;;;;;5038856;28;20726;-80
2023/08/24 03:49:00;;;;;;;3.80;2.97;;;;;;;;;;5038840;28;20451;-81
2023/08/24 03:51:26;;;;;;;3.05;2.70;;;;;;;;;;5038565;28;20382;-81
2023/08/24 03:53:52;;;;;;;3.80;2.80;;;;;;;;;;5038834;28;20800;-82
2023/08/24 03:56:18;;;;;;;3.13;2.70;;;;;;;;;;5039384;28;20406;-81
2023/08/24 03:58:44;;;;;;;2.90;2.60;;;;;;;;;;5039362;28;20422;-82
2023/08/24 04:01:10;;;;;;;3.28;2.67;;;;;;;;;;5023280;28;20849;-82
2023/08/24 04:03:36;;;;;;;3.40;3.10;;;;;;;;;;5045344;28;20521;-82
2023/08/24 04:06:02;;;;;;;2.93;2.70;;;;;;;;;;5038576;28;20442;-82
2023/08/24 04:08:28;;;;;;;3.10;2.73;;;;;;;;;;5039169;28;20446;-82
2023/08/24 04:10:54;;;;;;;3.23;3.03;;;;;;;;;;5038646;28;20391;-82
2023/08/24 04:13:20;;;;;;;3.37;2.90;;;;;;;;;;5038739;28;20966;-82
2023/08/24 04:15:46;;;;;;;3.08;2.78;;;;;;;;;;5035977;28;20398;-82
2023/08/24 04:18:12;;;;;;;4.28;3.88;;;;;;;;;;5039277;28;20387;-82
2023/08/24 04:20:38;;;;;;;3.13;2.88;;;;;;;;;;5038526;28;20489;-82
2023/08/24 04:23:04;;;;;;;2.75;2.53;;;;;;;;;;5038430;28;20399;-82
2023/08/24 04:25:30;;;;;;;3.60;3.20;;;;;;;;;;5038303;28;20399;-82
2023/08/24 04:27:56;;;;;;;2.70;2.50;;;;;;;;;;5038514;28;20391;-83
2023/08/24 04:30:22;;;;;;;3.28;3.00;;;;;;;;;;5038549;28;20872;-82
2023/08/24 04:32:48;;;;;;;3.20;3.00;;;;;;;;;;5038182;28;20620;-82
2023/08/24 04:35:14;;;;;;;3.65;3.03;;;;;;;;;;5037519;28;20399;-82
2023/08/24 04:37:40;;;;;;;2.92;2.70;;;;;;;;;;5038424;28;20417;-82
2023/08/24 04:40:11;;;;;;;2.95;2.75;;;;;;;;;;5038202;28;20425;-82
2023/08/24 04:42:37;;;;;;;3.40;3.10;;;;;;;;;;5038456;28;20952;-82
2023/08/24 04:45:03;;;;;;;3.07;2.77;;;;;;;;;;5037437;28;20398;-82
2023/08/24 04:47:29;;;;;;;3.40;3.10;;;;;;;;;;5038665;28;20391;-82
2023/08/24 04:49:55;;;;;;;3.20;2.90;;;;;;;;;;5035720;28;20394;-82
2023/08/24 04:52:21;;;;;;;3.50;2.92;;;;;;;;;;5036497;28;20733;-82
2023/08/24 04:54:47;;;;;;;3.55;3.22;;;;;;;;;;5038451;28;20393;-82
2023/08/24 04:57:13;;;;;;;3.63;3.20;;;;;;;;;;5037089;28;20398;-82
2023/08/24 04:59:39;;;;;;;3.40;3.10;;;;;;;;;;5021023;28;20395;-82
2023/08/24 05:02:05;;;;;;;3.45;3.15;;;;;;;;;;5037633;28;20732;-82
2023/08/24 05:04:31;;;;;;;4.30;3.22;;;;;;;;;;5037714;28;20399;-82
2023/08/24 05:06:57;;;;;;;3.70;3.40;;;;;;;;;;5037397;28;20395;-82
2023/08/24 05:09:23;;;;;;;3.25;2.95;;;;;;;;;;5038090;28;20418;-82
2023/08/24 05:11:49;;;;;;;3.47;3.17;;;;;;;;;;5038148;28;20380;-82
2023/08/24 05:14:15;;;;;;;4.20;2.97;;;;;;;;;;5037771;28;20426;-82
2023/08/24 05:16:41;;;;;;;3.83;3.40;;;;;;;;;;5037884;28;20383;-82
2023/08/24 05:19:07;;;;;;;5.38;3.17;;;;;;;;;;5037767;28;20853;-82
2023/08/24 05:21:33;;;;;;;3.90;3.05;;;;;;;;;;5037260;28;20402;-82
2023/08/24 05:23:59;;;;;;;4.70;3.20;;;;;;;;;;5037283;28;20845;-82
2023/08/24 05:26:25;;;;;;;3.83;3.45;;;;;;;;;;5037249;28;20380;-81
2023/08/24 05:28:53;;;;;;;3.60;3.30;;;;;;;;;;5037900;28;20391;-82
2023/08/24 05:31:19;;;;;;;2.95;2.65;;;;;;;;;;5037336;28;20422;-82
2023/08/24 05:33:45;;;;;;;3.17;2.85;;;;;;;;;;5036660;28;20894;-82
2023/08/24 05:36:11;;;;;;;3.70;3.42;;;;;;;;;;5035930;28;20379;-82
2023/08/24 05:38:37;;;;;;;5.00;3.03;;;;;;;;;;5035773;28;20911;-82
2023/08/24 05:41:04;;;;;;;3.20;2.90;;;;;;;;;;5035879;28;20418;-81
2023/08/24 05:43:30;;;;;;;3.60;3.30;;;;;;;;;;5034450;28;20391;-82
2023/08/24 05:45:56;;;;;;;3.43;2.90;;;;;;;;;;5030418;28;20749;-82
2023/08/24 05:48:22;;;;;;;3.17;2.80;;;;;;;;;;5036856;28;20391;-82
2023/08/24 05:50:48;;;;;;;3.60;3.30;;;;;;;;;;5036382;28;20577;-82
2023/08/24 05:53:14;;;;;;;3.35;3.05;;;;;;;;;;5036989;28;20454;-81
2023/08/24 05:55:40;;;;;;;4.07;3.10;;;;;;;;;;5037045;28;20387;-81
2023/08/24 05:58:06;;;;;;;3.78;3.20;;;;;;;;;;5037155;28;20384;-81
2023/08/24 06:00:33;;;;;;;3.97;3.00;;;;;;;;;;5033777;28;20447;-81
2023/08/24 06:02:59;;;;;;;3.42;3.00;;;;;;;;;;5033739;28;20496;-80
2023/08/24 06:05:27;;;;;;;3.30;3.00;;;;;;;;;;5036037;28;20395;-82
2023/08/24 06:07:53;;;;;;;3.22;3.00;;;;;;;;;;5035878;28;20386;-82
2023/08/24 06:10:19;;;;;;;3.50;3.20;;;;;;;;;;5037193;28;20441;-82
2023/08/24 06:12:45;;;;;;;5.63;3.60;;;;;;;;;;5036221;28;20756;-81
2023/08/24 06:15:13;;;;;;;3.40;3.10;;;;;;;;;;5034131;28;20436;-82
2023/08/24 06:17:39;;;;;;;4.38;2.95;;;;;;;;;;5037221;28;20406;-82
2023/08/24 06:20:05;;;;;;;4.70;3.05;;;;;;;;;;5019536;28;20391;-82
2023/08/24 06:22:31;;;;;;;3.78;3.20;;;;;;;;;;5036986;28;20437;-81
2023/08/24 06:25:00;;;;;;;4.00;3.60;;;;;;;;;;5039362;28;20396;-81
2023/08/24 06:27:27;;;;;;;3.35;3.05;;;;;;;;;;5039226;28;20382;-81
2023/08/24 06:29:53;;;;;;;5.80;3.72;;;;;;;;;;5035835;28;20394;-81
2023/08/24 06:32:19;;;;;;;3.75;3.40;;;;;;;;;;5035776;28;20409;-82
2023/08/24 06:34:45;;;;;;;5.50;3.72;;;;;;;;;;5035084;28;20757;-81
2023/08/24 06:37:11;;;;;;;4.75;3.42;;;;;;;;;;5035632;28;20417;-82
2023/08/24 06:39:37;;;;;;;4.15;3.75;;;;;;;;;;5033937;28;20457;-82
2023/08/24 06:42:03;;;;;;;4.22;3.83;;;;;;;;;;5030356;28;20388;-81
2023/08/24 06:44:29;;;;;;;4.78;3.33;;;;;;;;;;5027849;28;20376;-81
2023/08/24 06:46:55;;;;;;;3.75;3.45;;;;;;;;;;5017029;28;20390;-81
2023/08/24 06:49:21;;;;;;;5.57;3.40;;;;;;;;;;5035161;28;20884;-81
2023/08/24 06:51:47;;;;;;;4.22;3.83;;;;;;;;;;5035057;28;20391;-81
2023/08/24 06:54:14;;;;;;;4.15;3.75;;;;;;;;;;5035309;28;20919;-81
2023/08/24 06:56:40;;;;;;;3.70;3.40;;;;;;;;;;5036343;28;20411;-81
2023/08/24 06:59:07;;;;;;;3.50;3.20;;;;;;;;;;5035789;28;20391;-82
2023/08/24 07:01:33;;;;;;;4.22;3.83;;;;;;;;;;5035321;28;20458;-81
2023/08/24 07:03:59;;;;;;;5.50;4.03;;;;;;;;;;5032435;28;20422;-81
2023/08/24 07:06:25;;;;;;;4.00;3.67;;;;;;;;;;5035761;28;20721;-82
2023/08/24 07:08:51;;;;;;;4.10;3.67;;;;;;;;;;5035541;28;20376;-81
2023/08/24 07:11:17;;;;;;;4.28;3.60;;;;;;;;;;5035607;28;20383;-81
2023/08/24 07:13:43;;;;;;;4.38;3.67;;;;;;;;;;5036833;28;20472;-81
2023/08/24 07:16:09;;;;;;;4.35;3.95;;;;;;;;;;5039100;28;20414;-81
2023/08/24 07:18:35;;;;;;;3.97;3.58;;;;;;;;;;5038290;28;20387;-81
2023/08/24 07:21:01;;;;;;;4.10;3.80;;;;;;;;;;5038784;28;20464;-81
2023/08/24 07:23:28;;;;;;;4.95;4.20;;;;;;;;;;5038773;28;20446;-81
2023/08/24 07:25:54;;;;;;;5.70;4.00;;;;;;;;;;5038686;28;20449;-81
2023/08/24 07:28:20;;;;;;;4.10;3.70;;;;;;;;;;5038997;28;20402;-81
2023/08/24 07:30:46;;;;;;;4.88;4.10;;;;;;;;;;5039319;28;20382;-81
2023/08/24 07:33:12;;;;;;;4.15;3.85;;;;;;;;;;5039494;28;21018;-81
2023/08/24 07:35:39;;;;;;;4.78;4.38;;;;;;;;;;5039012;28;20462;-81
2023/08/24 07:38:05;;;;;;;5.05;3.85;;;;;;;;;;5038798;28;20698;-81
2023/08/24 07:40:31;;;;;;;5.88;4.43;;;;;;;;;;5037999;28;20391;-81
2023/08/24 07:42:57;;;;;;;5.88;4.47;;;;;;;;;;5039191;28;20393;-82
2023/08/24 07:45:23;;;;;;;5.22;4.40;;;;;;;;;;5025040;28;20378;-81
2023/08/24 07:47:49;;;;;;;4.00;3.53;;;;;;;;;;5038693;28;20438;-81
2023/08/24 07:50:15;;;;;;;4.03;3.72;;;;;;;;;;5038348;28;20387;-81
2023/08/24 07:52:41;;;;;;;5.03;4.53;;;;;;;;;;5038231;28;20901;-81
2023/08/24 07:55:08;;;;;;;4.55;4.15;;;;;;;;;;5038107;28;20379;-82
2023/08/24 07:57:35;;;;;;;4.40;4.00;;;;;;;;;;5038504;28;20395;-81
2023/08/24 08:00:02;;;;;;;5.88;4.53;;;;;;;;;;5038480;28;20403;-81
2023/08/24 08:02:28;;;;;;;6.53;4.55;;;;;;;;;;5038420;28;20390;-81
2023/08/24 08:04:58;;;;;;;5.10;4.40;;;;;;;;;;5038284;28;20442;-81
2023/08/24 08:07:24;;;;;;;4.82;4.38;;;;;;;;;;5038913;28;20395;-81
2023/08/24 08:09:50;;;;;;;5.05;4.65;;;;;;;;;;5043403;28;20783;-81
2023/08/24 08:12:16;;;;;;;4.72;4.32;;;;;;;;;;5034195;28;20430;-82
2023/08/24 08:14:42;;;;;;;5.32;4.80;;;;;;;;;;5038401;28;20419;-82
2023/08/24 08:17:08;;;;;;;6.00;4.80;;;;;;;;;;5038010;28;20403;-82
2023/08/24 08:19:37;;;;;;;5.20;4.65;;;;;;;;;;5037787;28;20398;-81
2023/08/24 08:22:03;;;;;;;5.35;4.85;;;;;;;;;;5038363;28;20386;-81
2023/08/24 08:24:29;;;;;;;4.90;4.50;;;;;;;;;;5037556;28;20403;-82
2023/08/24 08:26:55;;;;;;;5.72;5.15;;;;;;;;;;5036719;28;20865;-81
2023/08/24 08:29:21;;;;;;;7.28;5.75;;;;;;;;;;5038243;28;20467;-82
2023/08/24 08:31:47;;;;;;;7.35;5.55;;;;;;;;;;5038281;28;20474;-81
2023/08/24 08:34:13;;;;;;;6.85;5.50;;;;;;;;;;5037677;28;20477;-81
2023/08/24 08:36:39;;;;;;;6.88;5.60;;;;;;;;;;5036756;28;20398;-81
2023/08/24 08:39:05;;;;;;;5.65;5.07;;;;;;;;;;5037446;28;20382;-81
2023/08/24 08:41:43;;;;;;;5.50;5.00;;;;;;;;;;5037474;28;20398;-81
2023/08/24 08:44:12;;;;;;;6.60;5.03;;;;;;;;;;5033459;28;20426;-82
2023/08/24 08:46:38;;;;;;;6.72;4.68;;;;;;;;;;5037174;28;20497;-81
2023/08/24 08:49:06;;;;;;;6.83;4.77;;;;;;;;;;5037521;28;20485;-82
2023/08/24 08:51:33;;;;;;;7.32;4.85;;;;;;;;;;5038165;28;20884;-81
2023/08/24 08:54:00;;;;;;;5.22;4.72;;;;;;;;;;5037266;28;20462;-81
2023/08/24 08:56:26;;;;;;;5.97;4.90;;;;;;;;;;5038111;28;20387;-81
2023/08/24 08:58:52;;;;;;;5.75;5.00;;;;;;;;;;5037546;28;20430;-84
2023/08/24 09:01:19;;;;;;;5.63;5.00;;;;;;;;;;5038043;28;20375;-81
2023/08/24 09:03:45;;;;;;;5.82;5.28;;;;;;;;;;5053362;28;20387;-82
2023/08/24 09:06:11;;;;;;;6.03;5.28;;;;;;;;;;5038161;28;20455;-82
2023/08/24 09:08:37;;;;;;;6.05;5.50;;;;;;;;;;5044583;28;20446;-82
2023/08/24 09:11:03;;;;;;;5.95;4.70;;;;;;;;;;5030286;28;20394;-82
2023/08/24 09:13:30;;;;;;;6.17;4.80;;;;;;;;;;5035274;28;20419;-82
2023/08/24 09:16:04;;;;;;;7.30;5.20;;;;;;;;;;5036559;28;20383;-82
2023/08/24 09:18:37;;;;;;;6.38;5.22;;;;;;;;;;5026239;28;20410;-82
2023/08/24 09:21:12;;;;;;;5.30;4.80;;;;;;;;;;5037896;28;20379;-82
2023/08/24 09:23:39;;;;;;;5.88;4.97;;;;;;;;;;5036998;28;20387;-82
2023/08/24 09:26:05;;;;;;;6.88;5.20;;;;;;;;;;5036647;28;20380;-81
2023/08/24 09:28:31;;;;;;;5.65;5.15;;;;;;;;;;5036908;28;20387;-82
2023/08/24 09:31:01;;;;;;;5.72;5.18;;;;;;;;;;5036184;28;20856;-81
2023/08/24 09:33:27;;;;;;;6.32;5.47;;;;;;;;;;5036033;28;20918;-81
2023/08/24 09:35:55;;;;;;;7.00;6.30;;;;;;;;;;5036094;28;20844;-81
2023/08/24 09:38:22;;;;;;;7.38;6.38;;;;;;;;;;5036495;28;20395;-81
2023/08/24 09:40:51;;;;;;;9.10;6.13;;;;;;;;;;5036304;28;20371;-81
2023/08/24 09:43:17;;;;;;;8.15;5.88;;;;;;;;;;5036667;28;20419;-81
2023/08/24 09:45:53;;;;;;;10.35;7.70;;;;;;;;;;5037011;28;20394;-81
2023/08/24 09:48:20;;;;;;;9.43;7.28;;;;;;;;;;5036484;28;20387;-81
2023/08/24 09:50:47;;;;;;;11.70;8.50;;;;;;;;;;5036385;28;20390;-81
2023/08/24 09:53:18;;;;;;;19.10;11.05;;;;;;;;;;5036137;28;20752;-82
2023/08/24 09:55:46;;;;;;;19.95;12.85;;;;;;;;;;5035570;28;20926;-81
2023/08/24 09:58:12;;;;;;;15.38;10.80;;;;;;;;;;5036389;28;20387;-81
2023/08/24 10:00:38;;;;;;;12.77;9.60;;;;;;;;;;5036528;28;20383;-82
2023/08/24 10:03:05;;;;;;;14.82;8.50;;;;;;;;;;5035821;28;20418;-81
2023/08/24 10:05:31;;;;;;;11.90;9.43;;;;;;;;;;5036187;28;20395;-81
2023/08/24 10:07:58;;;;;;;11.85;8.80;;;;;;;;;;5036184;28;20445;-81
2023/08/24 10:10:26;;;;;;;11.60;8.52;;;;;;;;;;5036429;28;20702;-81
2023/08/24 10:12:53;;;;;;;10.98;7.57;;;;;;;;;;5034158;28;20379;-81
2023/08/24 10:15:22;;;;;;;9.02;7.40;;;;;;;;;;5027057;28;20383;-81
2023/08/24 10:17:49;;;;;;;13.63;8.50;;;;;;;;;;5035639;28;20391;-81
2023/08/24 10:20:15;;;;;;;9.82;6.50;;;;;;;;;;5034867;28;20391;-81
2023/08/24 10:22:41;;;;;;;7.22;5.30;;;;;;;;;;5033762;28;20402;-82
2023/08/24 10:25:09;;;;;;;8.02;5.28;;;;;;;;;;5035557;28;20474;-81
2023/08/24 10:27:36;;;;;;;6.30;4.75;;;;;;;;;;5036108;28;20403;-82
2023/08/24 10:30:02;;;;;;;10.98;5.57;;;;;;;;;;5035728;28;20939;-82
2023/08/24 10:32:29;;;;;;;7.47;6.25;;;;;;;;;;5035905;28;20414;-82
2023/08/24 10:34:55;;;;;;;12.65;5.68;;;;;;;;;;5035491;28;20501;-82
2023/08/24 10:37:30;;;;;;;8.95;5.50;;;;;;;;;;5035957;28;20387;-81
2023/08/24 10:39:56;;;;;;;8.77;5.82;;;;;;;;;;5035479;28;20418;-81
2023/08/24 10:42:23;;;;;;;8.48;5.55;;;;;;;;;;5035529;28;20394;-82
2023/08/24 10:44:50;;;;;;;6.95;5.22;;;;;;;;;;5035278;28;20389;-79
2023/08/24 10:47:18;;;;;;;10.52;5.70;;;;;;;;;;5034997;28;20379;-81
2023/08/24 10:49:45;;;;;;;8.45;6.07;;;;;;;;;;5030959;28;20887;-81
2023/08/24 10:52:19;;;;;;;9.75;5.82;;;;;;;;;;5035830;28;20391;-82
2023/08/24 10:54:46;;;;;;;10.68;5.80;;;;;;;;;;5039292;28;20449;-82
2023/08/24 10:57:27;;;;;;;9.25;6.20;;;;;;;;;;5035537;28;20708;-80
2023/08/24 11:00:00;;;;;;;8.43;5.90;;;;;;;;;;5035135;28;20386;-80
2023/08/24 11:02:26;;;;;;;8.35;5.32;;;;;;;;;;5033901;28;20896;-82
2023/08/24 11:05:05;;;;;;;6.65;4.57;;;;;;;;;;5034807;28;20421;-82
2023/08/24 11:07:31;;;;;;;6.32;5.10;;;;;;;;;;5034782;28;20490;-79
2023/08/24 11:09:57;;;;;;;7.17;4.70;;;;;;;;;;5035788;28;20427;-82
2023/08/24 11:12:23;;;;;;;10.30;4.30;;;;;;;;;;5034833;28;20433;-82
2023/08/24 11:15:00;;;;;;;6.57;4.72;;;;;;;;;;5034869;28;20462;-82
2023/08/24 11:17:31;;;;;;;8.50;4.80;;;;;;;;;;5035127;28;20383;-82
2023/08/24 11:19:58;;;;;;;7.00;4.50;;;;;;;;;;5033602;28;20462;-82
2023/08/24 11:22:24;;;;;;;8.32;4.55;;;;;;;;;;5034304;28;20383;-82
2023/08/24 11:24:50;;;;;;;4.90;4.38;;;;;;;;;;5034131;28;20383;-82
2023/08/24 11:27:16;;;;;;;8.60;4.75;;;;;;;;;;5035289;28;20394;-82
2023/08/24 11:29:42;;;;;;;9.43;4.53;;;;;;;;;;5034421;28;20383;-82
2023/08/24 11:32:08;;;;;;;7.78;4.72;;;;;;;;;;5034066;28;20398;-81
2023/08/24 11:34:36;;;;;;;6.22;4.43;;;;;;;;;;5035762;28;20867;-82
2023/08/24 11:37:02;;;;;;;7.57;5.53;;;;;;;;;;5035366;28;20386;-79
2023/08/24 11:39:31;;;;;;;9.13;4.97;;;;;;;;;;5034985;28;20391;-81
2023/08/24 11:41:58;;;;;;;11.30;5.00;;;;;;;;;;5034343;28;20398;-81
2023/08/24 11:44:24;;;;;;;6.93;4.40;;;;;;;;;;5034407;28;20414;-81
2023/08/24 11:46:50;;;;;;;8.98;4.70;;;;;;;;;;5033127;28;20395;-80
2023/08/24 11:49:16;;;;;;;4.88;4.03;;;;;;;;;;5017216;28;20858;-81
2023/08/24 11:51:42;;;;;;;7.60;3.90;;;;;;;;;;5034063;28;20841;-80
2023/08/24 11:54:08;;;;;;;6.45;3.92;;;;;;;;;;5033878;28;20895;-81
2023/08/24 11:56:40;;;;;;;6.88;4.18;;;;;;;;;;5032191;28;20391;-82
2023/08/24 11:59:06;;;;;;;9.82;4.68;;;;;;;;;;5033874;28;20466;-81
2023/08/24 12:01:33;;;;;;;7.78;4.50;;;;;;;;;;5041483;28;20395;-81
2023/08/24 12:03:59;;;;;;;8.75;5.20;;;;;;;;;;5037521;28;20397;-81
2023/08/24 12:06:28;;;;;;;9.75;5.30;;;;;;;;;;5037480;28;20474;-81
2023/08/24 12:08:55;;;;;;;6.30;3.97;;;;;;;;;;5037093;28;20379;-81
2023/08/24 12:11:25;;;;;;;5.13;3.80;;;;;;;;;;5033501;28;20389;-81
2023/08/24 12:13:52;;;;;;;8.67;3.97;;;;;;;;;;5036440;28;20534;-82
2023/08/24 12:16:19;;;;;;;7.28;4.00;;;;;;;;;;5037132;28;20387;-81
2023/08/24 12:18:55;;;;;;;8.35;4.10;;;;;;;;;;5037204;28;20388;-81
2023/08/24 12:21:22;;;;;;;8.05;4.15;;;;;;;;;;5037377;28;20386;-80
2023/08/24 12:23:57;;;;;;;11.43;4.28;;;;;;;;;;5037057;28;20383;-82
2023/08/24 12:26:23;;;;;;;6.57;4.00;;;;;;;;;;5036126;28;20398;-82
2023/08/24 12:28:51;;;;;;;6.32;3.60;;;;;;;;;;5037086;28;20393;-82
2023/08/24 12:31:17;;;;;;;9.20;3.90;;;;;;;;;;5035993;28;20391;-81
2023/08/24 12:33:44;;;;;;;9.73;4.50;;;;;;;;;;5036381;28;20511;-81
2023/08/24 12:36:10;;;;;;;6.57;3.70;;;;;;;;;;5037261;28;20407;-81
2023/08/24 12:38:36;;;;;;;7.68;3.55;;;;;;;;;;5037631;28;20399;-82
2023/08/24 12:41:02;;;;;;;7.43;3.40;;;;;;;;;;5037806;28;20406;-82
2023/08/24 12:43:28;;;;;;;7.40;3.00;;;;;;;;;;5038257;28;20818;-82
2023/08/24 12:45:55;;;;;;;5.57;2.97;;;;;;;;;;5038379;28;20473;-82
2023/08/24 12:48:21;;;;;;;8.38;3.33;;;;;;;;;;5037265;28;20392;-82
2023/08/24 12:50:47;;;;;;;9.90;3.28;;;;;;;;;;5036757;28;20431;-82
2023/08/24 12:53:13;;;;;;;6.13;3.10;;;;;;;;;;5029566;28;20415;-82
2023/08/24 12:55:40;;;;;;;8.70;3.17;;;;;;;;;;5037661;28;20948;-82
2023/08/24 12:58:06;;;;;;;7.15;2.90;;;;;;;;;;5037386;28;20462;-82
2023/08/24 13:00:32;;;;;;;6.03;3.00;;;;;;;;;;5035824;28;20391;-81
2023/08/24 13:02:58;;;;;;;7.20;3.00;;;;;;;;;;5052490;28;20419;-82
2023/08/24 13:05:24;;;;;;;6.72;3.30;;;;;;;;;;5036306;28;20391;-83
2023/08/24 13:07:51;;;;;;;5.00;2.87;;;;;;;;;;5037678;28;20417;-84
2023/08/24 13:10:17;;;;;;;7.65;3.55;;;;;;;;;;5038656;28;20382;-83
2023/08/24 13:12:43;;;;;;;7.10;3.00;;;;;;;;;;5037385;28;20422;-83
2023/08/24 13:15:11;;;;;;;7.88;3.60;;;;;;;;;;5039109;28;20447;-84
2023/08/24 13:17:37;;;;;;;7.03;3.42;;;;;;;;;;5039366;28;20765;-84
2023/08/24 13:20:03;;;;;;;7.72;2.90;;;;;;;;;;5039138;28;20796;-83
2023/08/24 13:22:29;;;;;;;6.53;3.35;;;;;;;;;;5038561;28;20762;-84
2023/08/24 13:24:55;;;;;;;5.63;3.00;;;;;;;;;;5038224;28;20402;-84
2023/08/24 13:27:21;;;;;;;5.43;3.10;;;;;;;;;;5037165;28;20453;-84
2023/08/24 13:29:47;;;;;;;5.68;3.00;;;;;;;;;;5036800;28;20726;-83
2023/08/24 13:32:13;;;;;;;8.57;3.00;;;;;;;;;;5038052;28;20413;-84
2023/08/24 13:34:39;;;;;;;8.93;2.80;;;;;;;;;;5038106;28;20415;-83
2023/08/24 13:37:05;;;;;;;10.07;3.83;;;;;;;;;;5038693;28;20399;-83
2023/08/24 13:39:34;;;;;;;6.60;3.30;;;;;;;;;;5038046;28;20415;-83
2023/08/24 13:42:02;;;;;;;7.97;3.30;;;;;;;;;;5030800;28;20936;-84
2023/08/24 13:44:29;;;;;;;9.75;4.03;;;;;;;;;;5037160;28;20386;-83
2023/08/24 13:46:55;;;;;;;6.18;3.10;;;;;;;;;;5038128;28;20379;-84
2023/08/24 13:49:21;;;;;;;8.17;2.80;;;;;;;;;;5038497;28;20383;-84
2023/08/24 13:51:47;;;;;;;7.00;2.88;;;;;;;;;;5037672;28;20434;-83
2023/08/24 13:54:17;;;;;;;7.60;3.13;;;;;;;;;;5051903;28;20900;-84
2023/08/24 13:56:43;;;;;;;6.93;2.70;;;;;;;;;;5037475;28;20392;-84
2023/08/24 13:59:09;;;;;;;7.70;3.05;;;;;;;;;;5038211;28;20858;-84
2023/08/24 14:01:35;;;;;;;4.88;2.75;;;;;;;;;;5035963;28;20395;-84
2023/08/24 14:04:02;;;;;;;7.60;2.83;;;;;;;;;;5037232;28;20418;-83
2023/08/24 14:06:32;;;;;;;8.07;3.00;;;;;;;;;;5037682;28;20387;-84
2023/08/24 14:08:58;;;;;;;5.63;2.67;;;;;;;;;;5050755;28;21139;-84
2023/08/24 14:11:24;;;;;;;10.02;3.85;;;;;;;;;;5037684;28;20411;-83
2023/08/24 14:13:50;;;;;;;8.35;3.28;;;;;;;;;;5038200;28;20422;-84
2023/08/24 14:16:17;;;;;;;6.93;2.80;;;;;;;;;;5037466;28;20406;-84
2023/08/24 14:18:43;;;;;;;6.68;3.10;;;;;;;;;;5038063;28;20405;-84
2023/08/24 14:21:10;;;;;;;7.97;3.47;;;;;;;;;;5038699;28;20478;-84
2023/08/24 14:23:36;;;;;;;8.30;3.28;;;;;;;;;;5039111;28;20383;-84
2023/08/24 14:26:02;;;;;;;10.25;3.28;;;;;;;;;;5037976;28;20421;-83
2023/08/24 14:28:47;;;;;;;8.50;3.35;;;;;;;;;;5038394;28;20387;-84
2023/08/24 14:31:13;;;;;;;6.95;3.67;;;;;;;;;;5047491;28;20394;-83
2023/08/24 14:33:39;;;;;;;7.63;3.25;;;;;;;;;;5036357;28;20478;-84
2023/08/24 14:36:05;;;;;;;7.83;3.60;;;;;;;;;;5036832;28;20389;-83
2023/08/24 14:38:31;;;;;;;7.67;2.97;;;;;;;;;;5037200;28;20421;-84
2023/08/24 14:41:00;;;;;;;10.80;3.20;;;;;;;;;;5037452;28;20383;-84